sensor_id;sensor_type;location;lat;lon;timestamp;P1;durP1;ratioP1;P2;durP2;ratioP2
62679;SDS011;68213;40.528;44.712;2023-04-25T00:00:59;7.75;;;3.40;;
62679;SDS011;68213;40.528;44.712;2023-04-25T00:02:00;7.35;;;4.15;;
62679;SDS011;68213;40.528;44.712;2023-04-25T00:03:01;8.05;;;4.50;;
62679;SDS011;68213;40.528;44.712;2023-04-25T00:04:02;6.80;;;4.60;;
62679;SDS011;68213;40.528;44.712;2023-04-25T00:05:03;9.13;;;4.50;;
62679;SDS011;68213;40.528;44.712;2023-04-25T00:06:05;6.65;;;4.47;;
62679;SDS011;68213;40.528;44.712;2023-04-25T00:07:06;8.80;;;4.97;;
62679;SDS011;68213;40.528;44.712;2023-04-25T00:08:07;8.82;;;5.05;;
62679;SDS011;68213;40.528;44.712;2023-04-25T00:09:08;7.45;;;4.60;;
62679;SDS011;68213;40.528;44.712;2023-04-25T00:10:10;7.43;;;3.92;;
62679;SDS011;68213;40.528;44.712;2023-04-25T00:11:11;8.30;;;3.75;;
62679;SDS011;68213;40.528;44.712;2023-04-25T00:12:12;8.38;;;4.22;;
62679;SDS011;68213;40.528;44.712;2023-04-25T00:13:16;8.65;;;4.20;;
62679;SDS011;68213;40.528;44.712;2023-04-25T00:14:17;5.97;;;4.00;;
62679;SDS011;68213;40.528;44.712;2023-04-25T00:15:18;7.72;;;4.20;;
62679;SDS011;68213;40.528;44.712;2023-04-25T00:16:19;8.23;;;4.60;;
62679;SDS011;68213;40.528;44.712;2023-04-25T00:17:19;6.72;;;4.68;;
62679;SDS011;68213;40.528;44.712;2023-04-25T00:18:20;7.32;;;4.93;;
62679;SDS011;68213;40.528;44.712;2023-04-25T00:19:21;7.82;;;4.65;;
62679;SDS011;68213;40.528;44.712;2023-04-25T00:20:24;9.50;;;4.70;;
62679;SDS011;68213;40.528;44.712;2023-04-25T00:21:25;9.77;;;4.28;;
62679;SDS011;68213;40.528;44.712;2023-04-25T00:22:25;15.30;;;4.60;;
62679;SDS011;68213;40.528;44.712;2023-04-25T00:23:27;7.75;;;4.47;;
62679;SDS011;68213;40.528;44.712;2023-04-25T00:24:27;20.75;;;4.60;;
62679;SDS011;68213;40.528;44.712;2023-04-25T00:25:28;200.93;;;9.65;;
62679;SDS011;68213;40.528;44.712;2023-04-25T00:26:30;63.97;;;6.82;;
62679;SDS011;68213;40.528;44.712;2023-04-25T00:27:31;40.88;;;7.47;;
62679;SDS011;68213;40.528;44.712;2023-04-25T00:28:31;22.80;;;7.30;;
62679;SDS011;68213;40.528;44.712;2023-04-25T00:29:32;13.65;;;6.93;;
62679;SDS011;68213;40.528;44.712;2023-04-25T00:30:33;16.40;;;6.43;;
62679;SDS011;68213;40.528;44.712;2023-04-25T00:31:34;19.30;;;9.25;;
62679;SDS011;68213;40.528;44.712;2023-04-25T00:32:35;14.70;;;8.52;;
62679;SDS011;68213;40.528;44.712;2023-04-25T00:33:35;17.60;;;8.90;;
62679;SDS011;68213;40.528;44.712;2023-04-25T00:34:36;16.77;;;8.45;;
62679;SDS011;68213;40.528;44.712;2023-04-25T00:35:37;16.30;;;7.82;;
62679;SDS011;68213;40.528;44.712;2023-04-25T00:36:38;16.33;;;7.60;;
62679;SDS011;68213;40.528;44.712;2023-04-25T00:37:39;17.95;;;8.75;;
62679;SDS011;68213;40.528;44.712;2023-04-25T00:38:40;11.13;;;7.43;;
62679;SDS011;68213;40.528;44.712;2023-04-25T00:39:40;13.23;;;7.75;;
62679;SDS011;68213;40.528;44.712;2023-04-25T00:40:41;6.57;;;3.55;;
62679;SDS011;68213;40.528;44.712;2023-04-25T00:41:44;4.50;;;3.15;;
62679;SDS011;68213;40.528;44.712;2023-04-25T00:42:45;7.88;;;3.55;;
62679;SDS011;68213;40.528;44.712;2023-04-25T00:43:47;5.82;;;3.28;;
62679;SDS011;68213;40.528;44.712;2023-04-25T00:44:52;5.65;;;3.15;;
62679;SDS011;68213;40.528;44.712;2023-04-25T00:45:53;6.15;;;2.70;;
62679;SDS011;68213;40.528;44.712;2023-04-25T00:46:54;3.40;;;2.50;;
62679;SDS011;68213;40.528;44.712;2023-04-25T00:47:55;6.78;;;3.00;;
62679;SDS011;68213;40.528;44.712;2023-04-25T00:48:56;5.65;;;2.97;;
62679;SDS011;68213;40.528;44.712;2023-04-25T00:49:57;4.68;;;2.67;;
62679;SDS011;68213;40.528;44.712;2023-04-25T00:50:58;5.30;;;2.28;;
62679;SDS011;68213;40.528;44.712;2023-04-25T00:52:00;4.00;;;2.40;;
62679;SDS011;68213;40.528;44.712;2023-04-25T00:53:03;5.72;;;2.53;;
62679;SDS011;68213;40.528;44.712;2023-04-25T00:54:04;3.08;;;1.70;;
62679;SDS011;68213;40.528;44.712;2023-04-25T00:55:05;3.40;;;2.00;;
62679;SDS011;68213;40.528;44.712;2023-04-25T00:56:05;2.70;;;1.77;;
62679;SDS011;68213;40.528;44.712;2023-04-25T00:57:07;5.53;;;2.28;;
62679;SDS011;68213;40.528;44.712;2023-04-25T00:58:08;3.38;;;2.05;;
62679;SDS011;68213;40.528;44.712;2023-04-25T00:59:09;4.13;;;1.90;;
62679;SDS011;68213;40.528;44.712;2023-04-25T01:00:10;5.90;;;2.42;;
62679;SDS011;68213;40.528;44.712;2023-04-25T01:01:11;6.03;;;2.30;;
62679;SDS011;68213;40.528;44.712;2023-04-25T01:02:12;9.95;;;2.78;;
62679;SDS011;68213;40.528;44.712;2023-04-25T01:03:14;6.03;;;2.38;;
62679;SDS011;68213;40.528;44.712;2023-04-25T01:04:16;5.53;;;2.33;;
62679;SDS011;68213;40.528;44.712;2023-04-25T01:05:17;4.35;;;2.13;;
62679;SDS011;68213;40.528;44.712;2023-04-25T01:06:19;5.75;;;2.30;;
62679;SDS011;68213;40.528;44.712;2023-04-25T01:07:19;6.00;;;2.40;;
62679;SDS011;68213;40.528;44.712;2023-04-25T01:08:21;6.20;;;2.40;;
62679;SDS011;68213;40.528;44.712;2023-04-25T01:09:24;3.05;;;2.10;;
62679;SDS011;68213;40.528;44.712;2023-04-25T01:10:26;10.35;;;2.47;;
62679;SDS011;68213;40.528;44.712;2023-04-25T01:11:27;6.80;;;2.35;;
62679;SDS011;68213;40.528;44.712;2023-04-25T01:12:27;4.35;;;2.50;;
62679;SDS011;68213;40.528;44.712;2023-04-25T01:13:29;5.03;;;2.05;;
62679;SDS011;68213;40.528;44.712;2023-04-25T01:14:29;3.40;;;2.20;;
62679;SDS011;68213;40.528;44.712;2023-04-25T01:15:30;4.60;;;2.10;;
62679;SDS011;68213;40.528;44.712;2023-04-25T01:16:36;4.25;;;2.30;;
62679;SDS011;68213;40.528;44.712;2023-04-25T01:17:37;4.65;;;2.20;;
62679;SDS011;68213;40.528;44.712;2023-04-25T01:18:38;4.22;;;2.22;;
62679;SDS011;68213;40.528;44.712;2023-04-25T01:19:39;4.15;;;2.10;;
62679;SDS011;68213;40.528;44.712;2023-04-25T01:20:40;4.88;;;2.13;;
62679;SDS011;68213;40.528;44.712;2023-04-25T01:21:42;3.97;;;2.10;;
62679;SDS011;68213;40.528;44.712;2023-04-25T01:22:43;5.60;;;2.25;;
62679;SDS011;68213;40.528;44.712;2023-04-25T01:23:43;7.43;;;2.28;;
62679;SDS011;68213;40.528;44.712;2023-04-25T01:24:44;3.40;;;1.90;;
62679;SDS011;68213;40.528;44.712;2023-04-25T01:25:45;5.20;;;2.20;;
62679;SDS011;68213;40.528;44.712;2023-04-25T01:26:47;5.60;;;2.25;;
62679;SDS011;68213;40.528;44.712;2023-04-25T01:27:53;4.70;;;2.40;;
62679;SDS011;68213;40.528;44.712;2023-04-25T01:28:53;6.38;;;2.38;;
62679;SDS011;68213;40.528;44.712;2023-04-25T01:29:55;4.70;;;2.20;;
62679;SDS011;68213;40.528;44.712;2023-04-25T01:30:56;7.22;;;2.88;;
62679;SDS011;68213;40.528;44.712;2023-04-25T01:31:57;4.28;;;2.30;;
62679;SDS011;68213;40.528;44.712;2023-04-25T01:32:59;4.28;;;2.40;;
62679;SDS011;68213;40.528;44.712;2023-04-25T01:34:01;5.25;;;2.38;;
62679;SDS011;68213;40.528;44.712;2023-04-25T01:35:01;4.55;;;2.53;;
62679;SDS011;68213;40.528;44.712;2023-04-25T01:36:03;4.97;;;2.20;;
62679;SDS011;68213;40.528;44.712;2023-04-25T01:37:04;5.55;;;2.45;;
62679;SDS011;68213;40.528;44.712;2023-04-25T01:38:05;6.93;;;2.63;;
62679;SDS011;68213;40.528;44.712;2023-04-25T01:39:06;4.50;;;2.47;;
62679;SDS011;68213;40.528;44.712;2023-04-25T01:40:08;7.15;;;2.28;;
62679;SDS011;68213;40.528;44.712;2023-04-25T01:41:09;5.25;;;2.50;;
62679;SDS011;68213;40.528;44.712;2023-04-25T01:42:11;6.22;;;3.17;;
62679;SDS011;68213;40.528;44.712;2023-04-25T01:43:13;4.25;;;3.00;;
62679;SDS011;68213;40.528;44.712;2023-04-25T01:44:14;5.90;;;2.90;;
62679;SDS011;68213;40.528;44.712;2023-04-25T01:45:15;4.90;;;2.72;;
62679;SDS011;68213;40.528;44.712;2023-04-25T01:46:17;5.30;;;2.85;;
62679;SDS011;68213;40.528;44.712;2023-04-25T01:47:18;6.13;;;3.38;;
62679;SDS011;68213;40.528;44.712;2023-04-25T01:48:18;5.38;;;3.65;;
62679;SDS011;68213;40.528;44.712;2023-04-25T01:49:19;5.13;;;3.30;;
62679;SDS011;68213;40.528;44.712;2023-04-25T01:50:20;6.95;;;3.65;;
62679;SDS011;68213;40.528;44.712;2023-04-25T01:51:22;7.95;;;3.60;;
62679;SDS011;68213;40.528;44.712;2023-04-25T01:52:23;7.43;;;4.18;;
62679;SDS011;68213;40.528;44.712;2023-04-25T01:53:24;6.85;;;4.57;;
62679;SDS011;68213;40.528;44.712;2023-04-25T01:54:25;9.02;;;5.30;;
62679;SDS011;68213;40.528;44.712;2023-04-25T01:55:25;10.13;;;5.28;;
62679;SDS011;68213;40.528;44.712;2023-04-25T01:56:29;9.68;;;6.07;;
62679;SDS011;68213;40.528;44.712;2023-04-25T01:57:31;10.35;;;5.07;;
62679;SDS011;68213;40.528;44.712;2023-04-25T01:58:32;7.07;;;4.50;;
62679;SDS011;68213;40.528;44.712;2023-04-25T01:59:32;9.40;;;5.13;;
62679;SDS011;68213;40.528;44.712;2023-04-25T02:00:33;11.40;;;4.55;;
62679;SDS011;68213;40.528;44.712;2023-04-25T02:01:34;9.70;;;5.85;;
62679;SDS011;68213;40.528;44.712;2023-04-25T02:02:34;8.15;;;4.28;;
62679;SDS011;68213;40.528;44.712;2023-04-25T02:03:35;6.57;;;3.97;;
62679;SDS011;68213;40.528;44.712;2023-04-25T02:04:36;6.97;;;3.67;;
62679;SDS011;68213;40.528;44.712;2023-04-25T02:05:39;7.28;;;4.30;;
62679;SDS011;68213;40.528;44.712;2023-04-25T02:06:40;8.95;;;4.60;;
62679;SDS011;68213;40.528;44.712;2023-04-25T02:07:41;11.07;;;6.70;;
62679;SDS011;68213;40.528;44.712;2023-04-25T02:08:44;14.98;;;7.97;;
62679;SDS011;68213;40.528;44.712;2023-04-25T02:09:45;15.02;;;9.88;;
62679;SDS011;68213;40.528;44.712;2023-04-25T02:10:46;15.43;;;9.32;;
62679;SDS011;68213;40.528;44.712;2023-04-25T02:11:47;15.40;;;7.15;;
62679;SDS011;68213;40.528;44.712;2023-04-25T02:12:50;10.63;;;5.57;;
62679;SDS011;68213;40.528;44.712;2023-04-25T02:13:51;9.77;;;5.70;;
62679;SDS011;68213;40.528;44.712;2023-04-25T02:14:52;12.35;;;6.55;;
62679;SDS011;68213;40.528;44.712;2023-04-25T02:15:52;15.57;;;6.82;;
62679;SDS011;68213;40.528;44.712;2023-04-25T02:16:53;10.60;;;5.93;;
62679;SDS011;68213;40.528;44.712;2023-04-25T02:17:56;13.15;;;6.25;;
62679;SDS011;68213;40.528;44.712;2023-04-25T02:18:58;17.15;;;6.25;;
62679;SDS011;68213;40.528;44.712;2023-04-25T02:19:59;11.68;;;6.32;;
62679;SDS011;68213;40.528;44.712;2023-04-25T02:21:00;11.25;;;5.35;;
62679;SDS011;68213;40.528;44.712;2023-04-25T02:22:01;14.75;;;8.20;;
62679;SDS011;68213;40.528;44.712;2023-04-25T02:23:02;18.13;;;10.15;;
62679;SDS011;68213;40.528;44.712;2023-04-25T02:24:03;19.75;;;10.48;;
62679;SDS011;68213;40.528;44.712;2023-04-25T02:25:04;16.35;;;10.05;;
62679;SDS011;68213;40.528;44.712;2023-04-25T02:26:05;18.60;;;11.02;;
62679;SDS011;68213;40.528;44.712;2023-04-25T02:27:06;18.20;;;9.23;;
62679;SDS011;68213;40.528;44.712;2023-04-25T02:28:07;16.77;;;8.32;;
62679;SDS011;68213;40.528;44.712;2023-04-25T02:29:09;15.82;;;9.20;;
62679;SDS011;68213;40.528;44.712;2023-04-25T02:30:10;17.98;;;10.70;;
62679;SDS011;68213;40.528;44.712;2023-04-25T02:31:11;17.45;;;10.90;;
62679;SDS011;68213;40.528;44.712;2023-04-25T02:32:12;16.75;;;9.82;;
62679;SDS011;68213;40.528;44.712;2023-04-25T02:33:13;20.80;;;10.48;;
62679;SDS011;68213;40.528;44.712;2023-04-25T02:34:17;19.85;;;10.45;;
62679;SDS011;68213;40.528;44.712;2023-04-25T02:35:17;17.40;;;9.93;;
62679;SDS011;68213;40.528;44.712;2023-04-25T02:36:18;15.98;;;9.75;;
62679;SDS011;68213;40.528;44.712;2023-04-25T02:37:19;15.05;;;9.63;;
62679;SDS011;68213;40.528;44.712;2023-04-25T02:38:20;22.40;;;10.65;;
62679;SDS011;68213;40.528;44.712;2023-04-25T02:39:20;18.45;;;11.25;;
62679;SDS011;68213;40.528;44.712;2023-04-25T02:40:22;19.70;;;10.50;;
62679;SDS011;68213;40.528;44.712;2023-04-25T02:41:23;18.25;;;10.55;;
62679;SDS011;68213;40.528;44.712;2023-04-25T02:42:23;14.95;;;9.80;;
62679;SDS011;68213;40.528;44.712;2023-04-25T02:43:24;17.83;;;10.40;;
62679;SDS011;68213;40.528;44.712;2023-04-25T02:44:25;19.10;;;9.38;;
62679;SDS011;68213;40.528;44.712;2023-04-25T02:45:26;16.30;;;9.82;;
62679;SDS011;68213;40.528;44.712;2023-04-25T02:46:27;16.70;;;10.02;;
62679;SDS011;68213;40.528;44.712;2023-04-25T02:47:27;22.85;;;10.55;;
62679;SDS011;68213;40.528;44.712;2023-04-25T02:48:28;22.80;;;10.27;;
62679;SDS011;68213;40.528;44.712;2023-04-25T02:49:29;19.80;;;9.75;;
62679;SDS011;68213;40.528;44.712;2023-04-25T02:50:30;17.10;;;10.48;;
62679;SDS011;68213;40.528;44.712;2023-04-25T02:51:31;16.65;;;9.00;;
62679;SDS011;68213;40.528;44.712;2023-04-25T02:52:32;53.22;;;10.48;;
62679;SDS011;68213;40.528;44.712;2023-04-25T02:53:33;67.03;;;10.93;;
62679;SDS011;68213;40.528;44.712;2023-04-25T02:54:34;149.23;;;12.90;;
62679;SDS011;68213;40.528;44.712;2023-04-25T02:55:35;51.28;;;10.35;;
62679;SDS011;68213;40.528;44.712;2023-04-25T02:56:36;66.57;;;10.95;;
62679;SDS011;68213;40.528;44.712;2023-04-25T02:57:36;140.10;;;12.65;;
62679;SDS011;68213;40.528;44.712;2023-04-25T02:58:37;198.23;;;12.77;;
62679;SDS011;68213;40.528;44.712;2023-04-25T02:59:38;425.25;;;17.77;;
62679;SDS011;68213;40.528;44.712;2023-04-25T03:00:38;344.10;;;15.05;;
62679;SDS011;68213;40.528;44.712;2023-04-25T03:01:39;344.70;;;15.00;;
62679;SDS011;68213;40.528;44.712;2023-04-25T03:02:40;476.33;;;18.13;;
62679;SDS011;68213;40.528;44.712;2023-04-25T03:03:41;27.00;;;10.80;;
62679;SDS011;68213;40.528;44.712;2023-04-25T03:04:41;20.85;;;11.25;;
62679;SDS011;68213;40.528;44.712;2023-04-25T03:05:42;22.08;;;11.10;;
62679;SDS011;68213;40.528;44.712;2023-04-25T03:06:43;41.88;;;11.07;;
62679;SDS011;68213;40.528;44.712;2023-04-25T03:07:43;21.50;;;11.13;;
62679;SDS011;68213;40.528;44.712;2023-04-25T03:08:45;21.98;;;11.45;;
62679;SDS011;68213;40.528;44.712;2023-04-25T03:09:47;20.23;;;11.52;;
62679;SDS011;68213;40.528;44.712;2023-04-25T03:10:47;20.65;;;11.57;;
62679;SDS011;68213;40.528;44.712;2023-04-25T03:11:50;24.63;;;12.00;;
62679;SDS011;68213;40.528;44.712;2023-04-25T03:12:51;20.27;;;11.82;;
62679;SDS011;68213;40.528;44.712;2023-04-25T03:13:51;22.75;;;11.95;;
62679;SDS011;68213;40.528;44.712;2023-04-25T03:14:52;23.83;;;11.90;;
62679;SDS011;68213;40.528;44.712;2023-04-25T03:15:53;25.85;;;11.45;;
62679;SDS011;68213;40.528;44.712;2023-04-25T03:16:53;22.02;;;12.98;;
62679;SDS011;68213;40.528;44.712;2023-04-25T03:17:57;22.45;;;11.70;;
62679;SDS011;68213;40.528;44.712;2023-04-25T03:18:57;18.38;;;11.68;;
62679;SDS011;68213;40.528;44.712;2023-04-25T03:19:58;19.60;;;11.40;;
62679;SDS011;68213;40.528;44.712;2023-04-25T03:20:59;21.13;;;11.27;;
62679;SDS011;68213;40.528;44.712;2023-04-25T03:22:03;22.15;;;10.98;;
62679;SDS011;68213;40.528;44.712;2023-04-25T03:23:03;22.10;;;11.75;;
62679;SDS011;68213;40.528;44.712;2023-04-25T03:24:04;15.32;;;8.80;;
62679;SDS011;68213;40.528;44.712;2023-04-25T03:25:05;16.67;;;8.68;;
62679;SDS011;68213;40.528;44.712;2023-04-25T03:26:07;17.63;;;10.00;;
62679;SDS011;68213;40.528;44.712;2023-04-25T03:27:08;18.13;;;9.13;;
62679;SDS011;68213;40.528;44.712;2023-04-25T03:28:09;14.38;;;7.97;;
62679;SDS011;68213;40.528;44.712;2023-04-25T03:29:09;14.05;;;8.10;;
62679;SDS011;68213;40.528;44.712;2023-04-25T03:30:10;20.15;;;8.60;;
62679;SDS011;68213;40.528;44.712;2023-04-25T03:31:11;15.52;;;8.73;;
62679;SDS011;68213;40.528;44.712;2023-04-25T03:32:14;18.33;;;9.38;;
62679;SDS011;68213;40.528;44.712;2023-04-25T03:33:15;17.00;;;9.02;;
62679;SDS011;68213;40.528;44.712;2023-04-25T03:34:16;17.50;;;9.63;;
62679;SDS011;68213;40.528;44.712;2023-04-25T03:35:18;18.77;;;9.57;;
62679;SDS011;68213;40.528;44.712;2023-04-25T03:36:19;20.60;;;9.85;;
62679;SDS011;68213;40.528;44.712;2023-04-25T03:37:20;16.48;;;8.95;;
62679;SDS011;68213;40.528;44.712;2023-04-25T03:38:21;18.80;;;10.50;;
62679;SDS011;68213;40.528;44.712;2023-04-25T03:39:21;17.38;;;10.88;;
62679;SDS011;68213;40.528;44.712;2023-04-25T03:40:22;17.05;;;10.60;;
62679;SDS011;68213;40.528;44.712;2023-04-25T03:41:25;18.92;;;9.70;;
62679;SDS011;68213;40.528;44.712;2023-04-25T03:42:26;18.58;;;9.63;;
62679;SDS011;68213;40.528;44.712;2023-04-25T03:43:26;18.45;;;9.02;;
62679;SDS011;68213;40.528;44.712;2023-04-25T03:44:27;22.88;;;9.80;;
62679;SDS011;68213;40.528;44.712;2023-04-25T03:45:28;19.10;;;8.57;;
62679;SDS011;68213;40.528;44.712;2023-04-25T03:46:28;21.63;;;10.20;;
62679;SDS011;68213;40.528;44.712;2023-04-25T03:47:29;17.27;;;8.75;;
62679;SDS011;68213;40.528;44.712;2023-04-25T03:48:32;14.07;;;8.38;;
62679;SDS011;68213;40.528;44.712;2023-04-25T03:49:33;17.55;;;8.75;;
62679;SDS011;68213;40.528;44.712;2023-04-25T03:50:34;16.15;;;8.90;;
62679;SDS011;68213;40.528;44.712;2023-04-25T03:51:35;15.85;;;8.88;;
62679;SDS011;68213;40.528;44.712;2023-04-25T03:52:36;17.40;;;9.10;;
62679;SDS011;68213;40.528;44.712;2023-04-25T03:53:37;23.52;;;9.65;;
62679;SDS011;68213;40.528;44.712;2023-04-25T03:54:37;17.55;;;8.95;;
62679;SDS011;68213;40.528;44.712;2023-04-25T03:55:38;19.00;;;8.75;;
62679;SDS011;68213;40.528;44.712;2023-04-25T03:56:39;17.35;;;9.07;;
62679;SDS011;68213;40.528;44.712;2023-04-25T03:57:40;22.05;;;9.95;;
62679;SDS011;68213;40.528;44.712;2023-04-25T03:58:40;18.58;;;9.70;;
62679;SDS011;68213;40.528;44.712;2023-04-25T03:59:41;21.63;;;10.20;;
62679;SDS011;68213;40.528;44.712;2023-04-25T04:00:42;21.85;;;10.80;;
62679;SDS011;68213;40.528;44.712;2023-04-25T04:01:42;21.25;;;9.60;;
62679;SDS011;68213;40.528;44.712;2023-04-25T04:02:43;19.85;;;9.55;;
62679;SDS011;68213;40.528;44.712;2023-04-25T04:03:44;21.63;;;9.35;;
62679;SDS011;68213;40.528;44.712;2023-04-25T04:04:45;18.60;;;9.32;;
62679;SDS011;68213;40.528;44.712;2023-04-25T04:05:45;15.07;;;8.93;;
62679;SDS011;68213;40.528;44.712;2023-04-25T04:06:47;21.65;;;9.50;;
62679;SDS011;68213;40.528;44.712;2023-04-25T04:07:48;20.13;;;9.85;;
62679;SDS011;68213;40.528;44.712;2023-04-25T04:08:49;21.55;;;9.48;;
62679;SDS011;68213;40.528;44.712;2023-04-25T04:09:50;21.60;;;10.18;;
62679;SDS011;68213;40.528;44.712;2023-04-25T04:10:50;16.33;;;9.55;;
62679;SDS011;68213;40.528;44.712;2023-04-25T04:11:51;21.00;;;8.70;;
62679;SDS011;68213;40.528;44.712;2023-04-25T04:12:52;14.70;;;7.93;;
62679;SDS011;68213;40.528;44.712;2023-04-25T04:13:53;17.20;;;8.93;;
62679;SDS011;68213;40.528;44.712;2023-04-25T04:14:53;15.88;;;7.57;;
62679;SDS011;68213;40.528;44.712;2023-04-25T04:15:54;15.57;;;9.00;;
62679;SDS011;68213;40.528;44.712;2023-04-25T04:16:55;16.88;;;8.77;;
62679;SDS011;68213;40.528;44.712;2023-04-25T04:17:56;17.20;;;10.25;;
62679;SDS011;68213;40.528;44.712;2023-04-25T04:18:57;19.85;;;9.65;;
62679;SDS011;68213;40.528;44.712;2023-04-25T04:19:57;22.17;;;9.40;;
62679;SDS011;68213;40.528;44.712;2023-04-25T04:20:59;19.52;;;10.40;;
62679;SDS011;68213;40.528;44.712;2023-04-25T04:22:03;15.13;;;9.90;;
62679;SDS011;68213;40.528;44.712;2023-04-25T04:23:04;20.40;;;10.48;;
62679;SDS011;68213;40.528;44.712;2023-04-25T04:24:05;12.43;;;5.80;;
62679;SDS011;68213;40.528;44.712;2023-04-25T04:25:06;12.48;;;5.13;;
62679;SDS011;68213;40.528;44.712;2023-04-25T04:26:07;7.10;;;4.25;;
62679;SDS011;68213;40.528;44.712;2023-04-25T04:27:09;8.82;;;4.13;;
62679;SDS011;68213;40.528;44.712;2023-04-25T04:28:10;12.02;;;4.78;;
62679;SDS011;68213;40.528;44.712;2023-04-25T04:29:11;7.53;;;4.35;;
62679;SDS011;68213;40.528;44.712;2023-04-25T04:30:12;7.78;;;3.90;;
62679;SDS011;68213;40.528;44.712;2023-04-25T04:31:12;10.45;;;4.40;;
62679;SDS011;68213;40.528;44.712;2023-04-25T04:32:17;11.35;;;3.88;;
62679;SDS011;68213;40.528;44.712;2023-04-25T04:33:17;8.52;;;4.20;;
62679;SDS011;68213;40.528;44.712;2023-04-25T04:34:21;6.65;;;3.45;;
62679;SDS011;68213;40.528;44.712;2023-04-25T04:35:22;11.02;;;4.00;;
62679;SDS011;68213;40.528;44.712;2023-04-25T04:36:23;7.80;;;4.65;;
62679;SDS011;68213;40.528;44.712;2023-04-25T04:37:24;11.27;;;5.00;;
62679;SDS011;68213;40.528;44.712;2023-04-25T04:38:25;9.90;;;3.92;;
62679;SDS011;68213;40.528;44.712;2023-04-25T04:39:26;7.22;;;3.20;;
62679;SDS011;68213;40.528;44.712;2023-04-25T04:40:27;8.77;;;3.42;;
62679;SDS011;68213;40.528;44.712;2023-04-25T04:41:27;9.00;;;4.05;;
62679;SDS011;68213;40.528;44.712;2023-04-25T04:42:28;5.88;;;3.40;;
62679;SDS011;68213;40.528;44.712;2023-04-25T04:43:29;6.88;;;3.92;;
62679;SDS011;68213;40.528;44.712;2023-04-25T04:44:30;7.80;;;4.40;;
62679;SDS011;68213;40.528;44.712;2023-04-25T04:45:32;11.32;;;4.30;;
62679;SDS011;68213;40.528;44.712;2023-04-25T04:46:34;9.70;;;4.70;;
62679;SDS011;68213;40.528;44.712;2023-04-25T04:47:42;10.50;;;3.50;;
62679;SDS011;68213;40.528;44.712;2023-04-25T04:48:43;7.38;;;3.65;;
62679;SDS011;68213;40.528;44.712;2023-04-25T04:49:44;9.13;;;3.60;;
62679;SDS011;68213;40.528;44.712;2023-04-25T04:50:45;7.60;;;4.03;;
62679;SDS011;68213;40.528;44.712;2023-04-25T04:51:46;5.75;;;3.90;;
62679;SDS011;68213;40.528;44.712;2023-04-25T04:52:47;9.07;;;3.50;;
62679;SDS011;68213;40.528;44.712;2023-04-25T04:53:47;11.20;;;3.72;;
62679;SDS011;68213;40.528;44.712;2023-04-25T04:54:48;8.60;;;3.70;;
62679;SDS011;68213;40.528;44.712;2023-04-25T04:55:49;7.90;;;3.50;;
62679;SDS011;68213;40.528;44.712;2023-04-25T04:56:50;7.20;;;3.53;;
62679;SDS011;68213;40.528;44.712;2023-04-25T04:57:52;10.57;;;4.15;;
62679;SDS011;68213;40.528;44.712;2023-04-25T04:58:55;11.40;;;3.80;;
62679;SDS011;68213;40.528;44.712;2023-04-25T04:59:56;9.40;;;3.67;;
62679;SDS011;68213;40.528;44.712;2023-04-25T05:00:57;8.05;;;3.55;;
62679;SDS011;68213;40.528;44.712;2023-04-25T05:01:57;6.63;;;3.80;;
62679;SDS011;68213;40.528;44.712;2023-04-25T05:02:58;9.77;;;4.60;;
62679;SDS011;68213;40.528;44.712;2023-04-25T05:03:59;9.60;;;4.28;;
62679;SDS011;68213;40.528;44.712;2023-04-25T05:05:00;9.25;;;3.90;;
62679;SDS011;68213;40.528;44.712;2023-04-25T05:06:01;11.88;;;4.43;;
62679;SDS011;68213;40.528;44.712;2023-04-25T05:07:04;9.95;;;4.05;;
62679;SDS011;68213;40.528;44.712;2023-04-25T05:08:05;8.30;;;3.90;;
62679;SDS011;68213;40.528;44.712;2023-04-25T05:09:07;9.73;;;3.80;;
62679;SDS011;68213;40.528;44.712;2023-04-25T05:10:08;12.88;;;4.53;;
62679;SDS011;68213;40.528;44.712;2023-04-25T05:11:09;9.30;;;4.55;;
62679;SDS011;68213;40.528;44.712;2023-04-25T05:12:10;5.47;;;3.75;;
62679;SDS011;68213;40.528;44.712;2023-04-25T05:13:11;7.47;;;3.90;;
62679;SDS011;68213;40.528;44.712;2023-04-25T05:14:12;6.10;;;3.70;;
62679;SDS011;68213;40.528;44.712;2023-04-25T05:15:13;9.70;;;4.07;;
62679;SDS011;68213;40.528;44.712;2023-04-25T05:16:14;9.35;;;4.38;;
62679;SDS011;68213;40.528;44.712;2023-04-25T05:17:14;5.95;;;3.60;;
62679;SDS011;68213;40.528;44.712;2023-04-25T05:18:15;9.00;;;4.10;;
62679;SDS011;68213;40.528;44.712;2023-04-25T05:19:16;8.30;;;4.40;;
62679;SDS011;68213;40.528;44.712;2023-04-25T05:20:16;9.30;;;4.47;;
62679;SDS011;68213;40.528;44.712;2023-04-25T05:21:19;5.40;;;3.50;;
62679;SDS011;68213;40.528;44.712;2023-04-25T05:22:19;10.80;;;3.63;;
62679;SDS011;68213;40.528;44.712;2023-04-25T05:23:20;10.52;;;4.50;;
62679;SDS011;68213;40.528;44.712;2023-04-25T05:24:21;9.27;;;4.13;;
62679;SDS011;68213;40.528;44.712;2023-04-25T05:25:22;8.48;;;4.55;;
62679;SDS011;68213;40.528;44.712;2023-04-25T05:26:22;12.95;;;5.00;;
62679;SDS011;68213;40.528;44.712;2023-04-25T05:27:24;10.85;;;4.03;;
62679;SDS011;68213;40.528;44.712;2023-04-25T05:28:24;11.63;;;4.22;;
62679;SDS011;68213;40.528;44.712;2023-04-25T05:29:25;8.77;;;3.80;;
62679;SDS011;68213;40.528;44.712;2023-04-25T05:30:26;7.05;;;4.18;;
62679;SDS011;68213;40.528;44.712;2023-04-25T05:31:27;9.15;;;4.13;;
62679;SDS011;68213;40.528;44.712;2023-04-25T05:32:28;6.95;;;3.35;;
62679;SDS011;68213;40.528;44.712;2023-04-25T05:33:28;5.22;;;3.17;;
62679;SDS011;68213;40.528;44.712;2023-04-25T05:34:29;6.63;;;3.85;;
62679;SDS011;68213;40.528;44.712;2023-04-25T05:35:30;9.05;;;3.83;;
62679;SDS011;68213;40.528;44.712;2023-04-25T05:36:31;8.77;;;3.40;;
62679;SDS011;68213;40.528;44.712;2023-04-25T05:37:32;9.70;;;4.47;;
62679;SDS011;68213;40.528;44.712;2023-04-25T05:38:33;9.80;;;3.67;;
62679;SDS011;68213;40.528;44.712;2023-04-25T05:39:34;10.10;;;4.13;;
62679;SDS011;68213;40.528;44.712;2023-04-25T05:40:34;9.90;;;4.03;;
62679;SDS011;68213;40.528;44.712;2023-04-25T05:41:35;10.65;;;5.00;;
62679;SDS011;68213;40.528;44.712;2023-04-25T05:42:36;9.18;;;3.92;;
62679;SDS011;68213;40.528;44.712;2023-04-25T05:43:36;7.80;;;4.10;;
62679;SDS011;68213;40.528;44.712;2023-04-25T05:44:38;7.82;;;3.90;;
62679;SDS011;68213;40.528;44.712;2023-04-25T05:45:39;9.38;;;4.40;;
62679;SDS011;68213;40.528;44.712;2023-04-25T05:46:40;9.35;;;4.10;;
62679;SDS011;68213;40.528;44.712;2023-04-25T05:47:41;7.13;;;4.05;;
62679;SDS011;68213;40.528;44.712;2023-04-25T05:48:41;12.02;;;4.35;;
62679;SDS011;68213;40.528;44.712;2023-04-25T05:49:42;8.88;;;3.88;;
62679;SDS011;68213;40.528;44.712;2023-04-25T05:50:43;11.98;;;4.22;;
62679;SDS011;68213;40.528;44.712;2023-04-25T05:51:43;10.65;;;4.50;;
62679;SDS011;68213;40.528;44.712;2023-04-25T05:52:44;10.32;;;4.03;;
62679;SDS011;68213;40.528;44.712;2023-04-25T05:53:45;9.30;;;4.45;;
62679;SDS011;68213;40.528;44.712;2023-04-25T05:54:46;11.70;;;4.75;;
62679;SDS011;68213;40.528;44.712;2023-04-25T05:55:46;6.65;;;4.07;;
62679;SDS011;68213;40.528;44.712;2023-04-25T05:56:47;11.38;;;4.35;;
62679;SDS011;68213;40.528;44.712;2023-04-25T05:57:48;8.75;;;5.05;;
62679;SDS011;68213;40.528;44.712;2023-04-25T05:58:49;12.55;;;4.57;;
62679;SDS011;68213;40.528;44.712;2023-04-25T05:59:50;7.82;;;4.25;;